createdAt,value
2022-07-31T00:00:26.925Z,101137.66
2022-07-31T00:02:56.566Z,101133.13
2022-07-31T00:05:25.619Z,101138.47
2022-07-31T00:07:54.659Z,101140.78
2022-07-31T00:10:22.988Z,101142.25
2022-07-31T00:12:52.751Z,101147.34
2022-07-31T00:15:21.181Z,101149.22
2022-07-31T00:17:49.992Z,101153.25
2022-07-31T00:20:19.142Z,101136.94
2022-07-31T00:22:48.875Z,101143.03
2022-07-31T00:25:18.552Z,101144.78
2022-07-31T00:27:46.549Z,101148.34
2022-07-31T00:30:17.598Z,101133.72
2022-07-31T00:32:46.318Z,101138.69
2022-07-31T00:35:17.244Z,101136.16
2022-07-31T00:37:45.379Z,101122.19
2022-07-31T00:40:15.695Z,101124.38
2022-07-31T00:42:44.049Z,101130.28
2022-07-31T00:45:13.676Z,101131.84
2022-07-31T00:47:44.157Z,101138.59
2022-07-31T00:50:12.852Z,101127.19
2022-07-31T00:52:40.927Z,101129.06
2022-07-31T00:55:10.020Z,101128.84
2022-07-31T00:57:39.015Z,101121.88
2022-07-31T01:00:08.253Z,101124.41
2022-07-31T01:02:36.955Z,101121.75
2022-07-31T01:05:07.351Z,101119.31
2022-07-31T01:07:35.331Z,101115.66
2022-07-31T01:10:07.907Z,101112.38
2022-07-31T01:12:40.835Z,101118.66
2022-07-31T01:15:11.618Z,101115.13
2022-07-31T01:17:41.006Z,101110.66
2022-07-31T01:20:12.057Z,101112.56
2022-07-31T01:23:10.912Z,101121.75
2022-07-31T01:25:57.238Z,101109.56
2022-07-31T01:28:54.045Z,101116.91
2022-07-31T01:31:27.874Z,101107.81
2022-07-31T01:34:05.169Z,101118.22
2022-07-31T01:36:35.833Z,101001.97
2022-07-31T01:39:05.510Z,101116.78
2022-07-31T01:41:39.124Z,101125.88
2022-07-31T01:44:13.727Z,101118.44
2022-07-31T01:46:44.754Z,101120.09
2022-07-31T01:49:14.730Z,101119.44
2022-07-31T01:51:45.296Z,101111.13
2022-07-31T01:54:15.168Z,101099.75
2022-07-31T01:56:44.693Z,101103.09
2022-07-31T01:59:20.315Z,101104.94
2022-07-31T02:02:30.327Z,101097.63
2022-07-31T02:04:59.346Z,101121.78
2022-07-31T02:07:29.594Z,101105.34
2022-07-31T02:09:59.493Z,101110.72
2022-07-31T02:12:34.289Z,101111.03
2022-07-31T02:15:07.532Z,101105.63
2022-07-31T02:17:38.614Z,101113.81
2022-07-31T02:20:37.781Z,101108.28
2022-07-31T02:23:14.122Z,101117.69
2022-07-31T02:25:49.111Z,101119.28
2022-07-31T02:28:21.628Z,101116.28
2022-07-31T02:30:52.808Z,101110.19
2022-07-31T02:33:25.151Z,101102.75
2022-07-31T02:35:56.891Z,101107.28
2022-07-31T02:38:27.568Z,101102.00
2022-07-31T02:41:01.099Z,101110.28
2022-07-31T02:43:32.945Z,101106.53
2022-07-31T02:46:13.892Z,101106.09
2022-07-31T02:48:44.497Z,101095.56
2022-07-31T02:51:14.616Z,101102.97
2022-07-31T02:53:45.726Z,101096.00
2022-07-31T02:56:15.737Z,101089.56
2022-07-31T02:58:51.406Z,101083.25
2022-07-31T03:01:27.972Z,101104.97
2022-07-31T03:03:57.447Z,101099.88
2022-07-31T03:06:33.124Z,101095.44
2022-07-31T03:09:04.407Z,101081.91
2022-07-31T03:11:34.163Z,101096.91
2022-07-31T03:14:15.574Z,101089.81
2022-07-31T03:16:46.850Z,101087.91
2022-07-31T03:19:15.207Z,101083.34
2022-07-31T03:21:43.756Z,101091.44
2022-07-31T03:24:15.246Z,101094.78
2022-07-31T03:26:47.456Z,101089.69
2022-07-31T03:29:41.801Z,101096.53
2022-07-31T03:32:08.167Z,101088.47
2022-07-31T03:34:42.265Z,101085.47
2022-07-31T03:37:11.556Z,101081.06
2022-07-31T03:39:39.975Z,101090.81
2022-07-31T03:42:18.671Z,101056.91
2022-07-31T03:44:48.119Z,101076.28
2022-07-31T03:47:19.055Z,101071.97
2022-07-31T03:49:48.137Z,101076.59
2022-07-31T03:52:17.798Z,101077.91
2022-07-31T03:54:46.168Z,101081.53
2022-07-31T03:57:17.720Z,101076.59
2022-07-31T03:59:48.391Z,101078.78
2022-07-31T04:02:27.227Z,101074.66
2022-07-31T04:05:09.818Z,101071.50
2022-07-31T04:07:38.601Z,101073.44
2022-07-31T04:10:07.741Z,101081.44
2022-07-31T04:12:35.583Z,101076.66
2022-07-31T04:15:03.502Z,101079.41
2022-07-31T04:17:33.806Z,101062.56
2022-07-31T04:20:02.646Z,101074.53
2022-07-31T04:22:34.284Z,101071.41
2022-07-31T04:25:06.357Z,101076.16
2022-07-31T04:27:49.789Z,101058.88
2022-07-31T04:30:18.539Z,101066.94
2022-07-31T04:32:49.205Z,101066.16
2022-07-31T04:35:22.143Z,101057.97
2022-07-31T04:37:50.056Z,101072.06
2022-07-31T04:40:19.368Z,101075.78
2022-07-31T04:42:52.558Z,101075.13
2022-07-31T04:45:22.879Z,101077.53
2022-07-31T04:47:55.399Z,101085.63
2022-07-31T04:50:27.615Z,101086.13
2022-07-31T04:52:56.879Z,101078.81
2022-07-31T04:55:31.755Z,101088.13
2022-07-31T04:58:02.225Z,101088.03
2022-07-31T05:00:30.248Z,101094.31
2022-07-31T05:03:02.714Z,101095.31
2022-07-31T05:05:31.370Z,101091.09
2022-07-31T05:08:06.130Z,101094.44
2022-07-31T05:11:01.007Z,101091.00
2022-07-31T05:13:30.655Z,101094.03
2022-07-31T05:16:08.189Z,101097.91
2022-07-31T05:18:38.011Z,101093.28
2022-07-31T05:21:28.347Z,101079.44
2022-07-31T05:24:18.896Z,101084.97
2022-07-31T05:27:15.485Z,101086.84
2022-07-31T05:29:47.630Z,101084.91
2022-07-31T05:32:15.933Z,101084.44
2022-07-31T05:34:45.474Z,101078.09
2022-07-31T05:37:13.637Z,101072.69
2022-07-31T05:39:51.039Z,101071.53
2022-07-31T05:42:37.808Z,101066.00
2022-07-31T05:45:38.091Z,101065.09
2022-07-31T05:48:07.002Z,101052.88
2022-07-31T05:50:36.350Z,101046.69
2022-07-31T05:53:04.838Z,101068.56
2022-07-31T05:55:52.248Z,101041.16
2022-07-31T05:58:34.166Z,101054.41
2022-07-31T06:01:13.342Z,101064.34
2022-07-31T06:03:51.845Z,101060.50
2022-07-31T06:06:36.850Z,101058.84
2022-07-31T06:09:06.696Z,101067.31
2022-07-31T06:11:40.295Z,101070.47
2022-07-31T06:14:11.718Z,101064.38
2022-07-31T06:16:58.109Z,101060.16
2022-07-31T06:19:31.548Z,101064.44
2022-07-31T06:22:00.814Z,101061.59
2022-07-31T06:24:32.135Z,101063.66
2022-07-31T06:27:04.698Z,101059.69
2022-07-31T06:29:41.532Z,101061.03
2022-07-31T06:32:13.099Z,101050.78
2022-07-31T06:34:51.599Z,101051.41
2022-07-31T06:37:36.473Z,101056.00
2022-07-31T06:40:06.710Z,101056.69
2022-07-31T06:42:56.087Z,101058.81
2022-07-31T06:45:51.611Z,101055.78
2022-07-31T06:48:40.843Z,101059.97
2022-07-31T06:54:06.902Z,101063.47
2022-07-31T06:56:36.632Z,101066.19
2022-07-31T06:59:05.895Z,101068.19
2022-07-31T07:01:37.494Z,101065.44
2022-07-31T07:04:14.621Z,101071.91
2022-07-31T07:06:44.936Z,101064.06
2022-07-31T07:09:17.447Z,101061.25
2022-07-31T07:11:54.983Z,101051.41
2022-07-31T07:14:23.518Z,101058.06
2022-07-31T07:16:55.190Z,101060.34
2022-07-31T07:19:23.233Z,101055.63
2022-07-31T07:21:51.163Z,101056.41
2022-07-31T07:24:25.876Z,101057.59
2022-07-31T07:29:53.644Z,101040.97
2022-07-31T07:32:21.737Z,101044.81
2022-07-31T07:35:00.260Z,101040.81
2022-07-31T07:37:52.283Z,101048.34
2022-07-31T07:40:27.347Z,101051.97
2022-07-31T07:43:01.229Z,101044.97
2022-07-31T07:45:34.659Z,101041.84
2022-07-31T07:48:06.339Z,101032.00
2022-07-31T07:50:50.320Z,101040.41
2022-07-31T07:53:32.975Z,101042.28
2022-07-31T07:56:24.766Z,101036.06
2022-07-31T07:59:22.441Z,101031.59
2022-07-31T08:02:09.256Z,101036.94
2022-07-31T08:04:37.963Z,101032.19
2022-07-31T08:07:06.172Z,101024.50
2022-07-31T08:09:39.302Z,101021.59
2022-07-31T08:12:34.008Z,101012.47
2022-07-31T08:15:11.790Z,101019.63
2022-07-31T08:18:13.954Z,101015.09
2022-07-31T08:20:42.982Z,101008.34
2022-07-31T08:23:13.462Z,101013.34
2022-07-31T08:25:46.406Z,101007.75
2022-07-31T08:28:24.093Z,101002.97
2022-07-31T08:30:52.511Z,101006.72
2022-07-31T08:33:28.091Z,101001.38
2022-07-31T08:35:56.870Z,100997.63
2022-07-31T08:38:31.967Z,101001.25
2022-07-31T08:41:24.066Z,101006.47
2022-07-31T08:43:59.883Z,101004.97
2022-07-31T08:46:37.862Z,100995.63
2022-07-31T08:49:09.756Z,101002.84
2022-07-31T08:51:51.058Z,101002.03
2022-07-31T08:54:56.076Z,101008.47
2022-07-31T08:57:26.883Z,100995.06
2022-07-31T08:59:56.658Z,101000.06
2022-07-31T09:02:35.429Z,100992.38
2022-07-31T09:05:42.716Z,100985.50
2022-07-31T09:08:14.540Z,100989.28
2022-07-31T09:10:50.005Z,100982.34
2022-07-31T09:13:20.159Z,100989.50
2022-07-31T09:15:52.744Z,100982.28
2022-07-31T09:18:24.735Z,100966.47
2022-07-31T09:21:05.685Z,100970.59
2022-07-31T09:23:34.437Z,100972.53
2022-07-31T09:26:05.453Z,100958.13
2022-07-31T09:28:36.232Z,100966.56
2022-07-31T09:31:15.017Z,100960.97
2022-07-31T09:34:02.495Z,100970.63
2022-07-31T09:36:50.083Z,100967.13
2022-07-31T09:39:52.314Z,100956.25
2022-07-31T09:42:45.559Z,100952.84
2022-07-31T09:45:22.711Z,100947.78
2022-07-31T09:48:14.324Z,100954.84
2022-07-31T09:50:53.998Z,100947.38
2022-07-31T09:53:28.622Z,100948.38
2022-07-31T09:56:14.714Z,100943.34
2022-07-31T09:58:43.329Z,100910.69
2022-07-31T10:01:13.237Z,100939.72
2022-07-31T10:03:42.962Z,100930.38
2022-07-31T10:06:16.416Z,100920.00
2022-07-31T10:08:46.912Z,100937.19
2022-07-31T10:11:30.134Z,100924.69
2022-07-31T10:14:16.614Z,100934.44
2022-07-31T10:16:46.487Z,100913.38
2022-07-31T10:19:38.126Z,100928.78
2022-07-31T10:22:26.116Z,100928.72
2022-07-31T10:24:56.214Z,100924.47
2022-07-31T10:27:27.223Z,100916.84
2022-07-31T10:30:10.957Z,100915.09
2022-07-31T10:32:44.506Z,100911.56
2022-07-31T10:35:44.413Z,100905.19
2022-07-31T10:38:52.105Z,100902.50
2022-07-31T10:42:15.785Z,100904.25
2022-07-31T10:44:48.137Z,100892.66
2022-07-31T10:47:34.843Z,100896.53
2022-07-31T10:50:22.516Z,100891.69
2022-07-31T10:53:54.475Z,100893.81
2022-07-31T10:56:24.848Z,100884.25
2022-07-31T10:59:14.707Z,100885.53
2022-07-31T11:02:10.633Z,100882.16
2022-07-31T11:04:48.297Z,100882.06
2022-07-31T11:07:38.874Z,100883.56
2022-07-31T11:10:27.719Z,100874.50
2022-07-31T11:13:33.588Z,100868.16
2022-07-31T11:16:20.335Z,100866.44
2022-07-31T11:19:04.822Z,100862.88
2022-07-31T11:21:39.638Z,100858.34
2022-07-31T11:24:24.391Z,100860.16
2022-07-31T11:26:55.557Z,100853.75
2022-07-31T11:30:01.218Z,100849.22
2022-07-31T11:32:24.836Z,100841.72
2022-07-31T11:34:55.992Z,100835.44
2022-07-31T11:37:46.479Z,100836.06
2022-07-31T11:40:22.328Z,100824.13
2022-07-31T11:43:04.985Z,100828.03
2022-07-31T11:45:49.645Z,100812.44
2022-07-31T11:48:19.093Z,100820.50
2022-07-31T11:50:48.427Z,100809.78
2022-07-31T11:53:16.784Z,100814.66
2022-07-31T11:55:46.404Z,100805.75
2022-07-31T11:58:17.415Z,100811.59
2022-07-31T12:00:52.775Z,100801.47
2022-07-31T12:03:31.390Z,100808.94
2022-07-31T12:06:06.875Z,100799.81
2022-07-31T12:08:35.588Z,100805.28
2022-07-31T12:11:09.423Z,100792.75
2022-07-31T12:14:05.879Z,100788.25
2022-07-31T12:16:41.556Z,100791.72
2022-07-31T12:19:17.628Z,100789.16
2022-07-31T12:21:46.290Z,100789.00
2022-07-31T12:24:15.373Z,100790.16
2022-07-31T12:26:49.991Z,100789.09
2022-07-31T12:29:20.434Z,100788.38
2022-07-31T12:31:49.820Z,100778.03
2022-07-31T12:34:31.639Z,100772.38
2022-07-31T12:37:04.329Z,100774.22
2022-07-31T12:39:47.552Z,100772.25
2022-07-31T12:42:30.229Z,100778.78
2022-07-31T12:45:18.283Z,100762.97
2022-07-31T12:47:52.135Z,100754.31
2022-07-31T12:50:23.969Z,100759.41
2022-07-31T12:52:57.959Z,100754.84
2022-07-31T12:55:29.136Z,100754.22
2022-07-31T12:57:58.103Z,100751.38
2022-07-31T13:00:28.854Z,100750.63
2022-07-31T13:02:58.320Z,100748.13
2022-07-31T13:05:27.462Z,100749.84
2022-07-31T13:07:55.469Z,100743.59
2022-07-31T13:10:29.284Z,100743.09
2022-07-31T13:13:00.470Z,100733.97
2022-07-31T13:15:30.633Z,100746.41
2022-07-31T13:17:59.412Z,100732.97
2022-07-31T13:20:27.379Z,100725.66
2022-07-31T13:22:55.290Z,100723.78
2022-07-31T13:25:26.817Z,100721.13
2022-07-31T13:27:54.838Z,100716.00
2022-07-31T13:30:25.890Z,100716.56
2022-07-31T13:32:55.531Z,100715.72
2022-07-31T13:35:27.839Z,100712.94
2022-07-31T13:37:57.091Z,100716.97
2022-07-31T13:40:39.181Z,100714.72
2022-07-31T13:43:10.529Z,100707.69
2022-07-31T13:45:38.666Z,100701.16
2022-07-31T13:48:10.023Z,100714.19
2022-07-31T13:50:39.595Z,100706.22
2022-07-31T13:53:07.867Z,100711.31
2022-07-31T13:55:38.928Z,100713.06
2022-07-31T13:58:07.457Z,100713.06
2022-07-31T14:00:35.541Z,100718.34
2022-07-31T14:03:03.477Z,100706.47
2022-07-31T14:05:37.971Z,100709.44
2022-07-31T14:08:33.333Z,100706.91
2022-07-31T14:10:57.263Z,100701.13
2022-07-31T14:13:28.932Z,100704.31
2022-07-31T14:15:59.842Z,100701.41
2022-07-31T14:18:27.917Z,100705.44
2022-07-31T14:21:09.765Z,100700.88
2022-07-31T14:23:40.718Z,100694.78
2022-07-31T14:26:09.428Z,100694.03
2022-07-31T14:28:43.452Z,100690.00
2022-07-31T14:31:11.836Z,100695.22
2022-07-31T14:33:49.093Z,100701.38
2022-07-31T14:36:20.947Z,100698.56
2022-07-31T14:38:51.727Z,100698.31
2022-07-31T14:41:19.727Z,100695.47
2022-07-31T14:43:47.686Z,100696.28
2022-07-31T14:46:15.642Z,100696.19
2022-07-31T14:48:46.470Z,100700.44
2022-07-31T14:51:23.740Z,100691.50
2022-07-31T14:53:52.467Z,100698.56
2022-07-31T14:56:45.023Z,100696.00
2022-07-31T14:59:09.114Z,100696.63
2022-07-31T15:01:39.726Z,100698.34
2022-07-31T15:04:13.647Z,100703.44
2022-07-31T15:06:56.230Z,100705.78
2022-07-31T15:09:31.603Z,100696.75
2022-07-31T15:12:06.310Z,100702.38
2022-07-31T15:14:36.979Z,100716.00
2022-07-31T15:17:07.874Z,100711.72
2022-07-31T15:19:36.101Z,100713.19
2022-07-31T15:22:10.947Z,100707.09
2022-07-31T15:24:47.525Z,100711.75
2022-07-31T15:27:21.544Z,100721.81
2022-07-31T15:30:03.885Z,100714.38
2022-07-31T15:32:43.248Z,100717.44
2022-07-31T15:35:13.493Z,100717.22
2022-07-31T15:37:45.292Z,100724.00
2022-07-31T15:40:15.098Z,100720.41
2022-07-31T15:42:44.556Z,100725.31
2022-07-31T15:45:15.656Z,100725.72
2022-07-31T15:47:44.559Z,100709.47
2022-07-31T15:50:17.082Z,100727.56
2022-07-31T15:52:46.465Z,100718.44
2022-07-31T15:55:15.551Z,100708.06
2022-07-31T15:57:43.584Z,100718.94
2022-07-31T16:00:13.068Z,100729.13
2022-07-31T16:02:42.466Z,100728.41
2022-07-31T16:05:21.808Z,100748.38
2022-07-31T16:08:32.246Z,100754.03
2022-07-31T16:10:54.006Z,100756.09
2022-07-31T16:13:25.861Z,100768.94
2022-07-31T16:15:57.213Z,100778.13
2022-07-31T16:18:28.207Z,100784.09
2022-07-31T16:20:56.117Z,100785.06
2022-07-31T16:23:27.550Z,100789.31
2022-07-31T16:25:55.748Z,100796.66
2022-07-31T16:28:23.626Z,100801.31
2022-07-31T16:30:51.681Z,100801.00
2022-07-31T16:33:21.823Z,100801.94
2022-07-31T16:35:49.676Z,100797.03
2022-07-31T16:38:20.114Z,100798.25
2022-07-31T16:40:53.285Z,100787.69
2022-07-31T16:43:50.706Z,100784.13
2022-07-31T16:46:12.163Z,100789.84
2022-07-31T16:48:40.226Z,100781.28
2022-07-31T16:51:08.170Z,100769.72
2022-07-31T16:54:14.211Z,100764.75
2022-07-31T16:56:28.618Z,100768.47
2022-07-31T16:58:58.421Z,100760.50
2022-07-31T17:01:53.968Z,100760.22
2022-07-31T17:04:25.656Z,100758.75
2022-07-31T17:06:53.556Z,100755.75
2022-07-31T17:09:21.586Z,100750.22
2022-07-31T17:11:59.670Z,100742.31
2022-07-31T17:14:29.152Z,100735.97
2022-07-31T17:17:07.942Z,100710.59
2022-07-31T17:19:45.457Z,100727.78
2022-07-31T17:22:17.639Z,100713.41
2022-07-31T17:27:39.444Z,100720.84
2022-07-31T17:30:08.962Z,100712.47
2022-07-31T17:32:36.963Z,100711.25
2022-07-31T17:35:05.573Z,100709.63
2022-07-31T17:37:36.237Z,100716.66
2022-07-31T17:40:27.057Z,100709.28
2022-07-31T17:42:56.784Z,100711.97
2022-07-31T17:45:26.590Z,100712.31
2022-07-31T17:48:06.109Z,100711.28
2022-07-31T17:50:34.340Z,100709.69
2022-07-31T17:53:02.255Z,100701.84
2022-07-31T17:55:30.244Z,100706.72
2022-07-31T17:57:59.695Z,100700.56
2022-07-31T18:00:31.071Z,100706.38
2022-07-31T18:03:00.624Z,100705.31
2022-07-31T18:05:31.366Z,100698.44
2022-07-31T18:07:59.447Z,100693.31
2022-07-31T18:10:51.905Z,100696.75
2022-07-31T18:13:16.636Z,100695.63
2022-07-31T18:15:44.890Z,100691.13
2022-07-31T18:18:12.830Z,100697.22
2022-07-31T18:20:40.995Z,100689.47
2022-07-31T18:23:10.226Z,100691.13
2022-07-31T18:25:38.506Z,100697.13
2022-07-31T18:28:07.241Z,100695.56
2022-07-31T18:30:40.791Z,100695.56
2022-07-31T18:33:09.972Z,100694.75
2022-07-31T18:35:38.533Z,100694.81
2022-07-31T18:38:09.647Z,100695.56
2022-07-31T18:40:37.719Z,100694.66
2022-07-31T18:43:07.478Z,100697.38
2022-07-31T18:45:39.484Z,100700.06
2022-07-31T18:48:09.772Z,100690.00
2022-07-31T18:51:01.371Z,100701.28
2022-07-31T18:53:26.436Z,100704.53
2022-07-31T18:56:01.201Z,100694.25
2022-07-31T18:58:32.378Z,100693.28
2022-07-31T19:01:04.374Z,100694.94
2022-07-31T19:03:38.490Z,100703.41
2022-07-31T19:06:07.428Z,100707.28
2022-07-31T19:08:35.293Z,100707.81
2022-07-31T19:11:05.825Z,100708.63
2022-07-31T19:13:33.908Z,100701.81
2022-07-31T19:16:07.067Z,100702.56
2022-07-31T19:18:36.525Z,100701.47
2022-07-31T19:21:41.147Z,100694.56
2022-07-31T19:24:07.354Z,100698.81
2022-07-31T19:26:41.606Z,100693.09
2022-07-31T19:29:12.713Z,100702.41
2022-07-31T19:31:49.158Z,100698.28
2022-07-31T19:34:18.301Z,100708.25
2022-07-31T19:36:46.791Z,100713.19
2022-07-31T19:39:16.361Z,100715.19
2022-07-31T19:42:07.324Z,100727.28
2022-07-31T19:44:35.840Z,100734.06
2022-07-31T19:47:06.267Z,100728.59
2022-07-31T19:49:38.092Z,100722.28
2022-07-31T19:52:07.875Z,100727.66
2022-07-31T19:54:45.253Z,100723.50
2022-07-31T19:57:13.184Z,100727.19
2022-07-31T19:59:41.161Z,100735.63
2022-07-31T20:02:16.866Z,100726.91
2022-07-31T20:04:49.702Z,100721.44
2022-07-31T20:07:20.693Z,100716.19
2022-07-31T20:09:48.671Z,100723.75
2022-07-31T20:12:17.985Z,100719.44
2022-07-31T20:14:49.317Z,100722.06
2022-07-31T20:17:18.761Z,100722.06
2022-07-31T20:20:04.690Z,100707.25
2022-07-31T20:22:38.547Z,100713.09
2022-07-31T20:25:12.054Z,100716.06
2022-07-31T20:27:48.131Z,100713.50
2022-07-31T20:30:21.677Z,100708.47
2022-07-31T20:32:51.488Z,100707.00
2022-07-31T20:35:47.306Z,100707.25
2022-07-31T20:38:11.699Z,100705.16
2022-07-31T20:40:53.071Z,100698.44
2022-07-31T20:43:23.334Z,100695.13
2022-07-31T20:45:51.855Z,100698.81
2022-07-31T20:48:34.760Z,100692.13
2022-07-31T20:51:04.915Z,100696.34
2022-07-31T20:53:36.737Z,100671.69
2022-07-31T20:56:05.144Z,100690.00
2022-07-31T20:58:49.446Z,100684.97
2022-07-31T21:01:20.156Z,100691.69
2022-07-31T21:03:49.974Z,100691.59
2022-07-31T21:06:20.949Z,100690.72
2022-07-31T21:08:50.003Z,100688.06
2022-07-31T21:11:17.854Z,100692.38
2022-07-31T21:13:45.919Z,100685.31
2022-07-31T21:16:13.915Z,100693.09
2022-07-31T21:18:47.325Z,100689.66
2022-07-31T21:21:16.656Z,100693.19
2022-07-31T21:23:45.917Z,100685.59
2022-07-31T21:26:17.157Z,100690.19
2022-07-31T21:28:48.380Z,100685.97
2022-07-31T21:31:16.945Z,100690.53
2022-07-31T21:33:45.456Z,100689.84
2022-07-31T21:36:16.240Z,100684.88
2022-07-31T21:38:44.686Z,100691.06
2022-07-31T21:41:13.211Z,100688.50
2022-07-31T21:43:58.751Z,100690.28
2022-07-31T21:46:29.887Z,100691.25
2022-07-31T21:48:58.300Z,100692.09
2022-07-31T21:51:28.513Z,100696.34
2022-07-31T21:53:56.587Z,100695.47
2022-07-31T21:56:24.528Z,100694.56
2022-07-31T21:58:52.526Z,100696.16
2022-07-31T22:01:20.384Z,100695.88
2022-07-31T22:03:48.264Z,100695.72
2022-07-31T22:06:36.650Z,100699.88
2022-07-31T22:09:13.525Z,100693.69
2022-07-31T22:11:54.966Z,100687.34
2022-07-31T22:14:33.486Z,100687.88
2022-07-31T22:17:07.883Z,100693.78
2022-07-31T22:19:47.435Z,100691.16
2022-07-31T22:22:19.933Z,100692.00
2022-07-31T22:24:50.618Z,100698.97
2022-07-31T22:27:42.031Z,100699.16
2022-07-31T22:30:13.582Z,100695.81
2022-07-31T22:32:52.984Z,100688.06
2022-07-31T22:35:21.789Z,100691.25
2022-07-31T22:37:55.320Z,100684.88
2022-07-31T22:40:25.863Z,100692.00
2022-07-31T22:42:57.651Z,100692.13
2022-07-31T22:45:27.118Z,100693.78
2022-07-31T22:47:57.893Z,100695.97
2022-07-31T22:50:26.252Z,100686.56
2022-07-31T22:52:54.354Z,100677.50
2022-07-31T22:55:24.129Z,100688.31
2022-07-31T22:57:51.965Z,100688.25
2022-07-31T23:00:20.769Z,100701.09
2022-07-31T23:02:48.877Z,100696.88
2022-07-31T23:05:19.639Z,100694.94
2022-07-31T23:07:47.703Z,100690.50
2022-07-31T23:10:17.261Z,100675.78
2022-07-31T23:12:46.610Z,100703.44
2022-07-31T23:15:14.578Z,100700.50
2022-07-31T23:17:47.989Z,100702.91
2022-07-31T23:20:16.177Z,100702.13
2022-07-31T23:22:44.078Z,100697.72
2022-07-31T23:25:20.402Z,100701.31
2022-07-31T23:27:53.202Z,100704.56
2022-07-31T23:30:27.381Z,100709.50
2022-07-31T23:32:58.505Z,100702.53
2022-07-31T23:35:26.563Z,100700.88
2022-07-31T23:37:57.258Z,100687.66
2022-07-31T23:40:25.388Z,100702.13
2022-07-31T23:42:56.678Z,100704.78
2022-07-31T23:45:24.686Z,100695.31
2022-07-31T23:47:52.578Z,100684.75
2022-07-31T23:50:20.728Z,100692.16
2022-07-31T23:52:48.632Z,100691.41
2022-07-31T23:55:16.577Z,100684.72
2022-07-31T23:57:46.899Z,100692.38
